createdAt,value
2019-05-18T00:00:33.023Z,6.03
2019-05-18T00:05:34.758Z,6.28
2019-05-18T00:10:36.499Z,5.70
2019-05-18T00:15:38.209Z,6.50
2019-05-18T00:20:39.965Z,6.00
2019-05-18T00:25:41.644Z,6.70
2019-05-18T00:30:43.428Z,5.95
2019-05-18T00:35:45.105Z,7.87
2019-05-18T00:40:46.920Z,6.28
2019-05-18T00:45:48.728Z,5.67
2019-05-18T00:50:50.507Z,7.70
2019-05-18T00:55:52.340Z,6.58
2019-05-18T01:00:54.057Z,6.45
2019-05-18T01:05:55.773Z,6.30
2019-05-18T01:10:57.553Z,6.30
2019-05-18T01:15:59.317Z,5.72
2019-05-18T01:21:01.009Z,5.97
2019-05-18T01:26:02.793Z,6.90
2019-05-18T01:31:04.500Z,7.42
2019-05-18T01:36:06.558Z,7.03
2019-05-18T01:41:08.294Z,8.35
2019-05-18T01:46:10.007Z,8.43
2019-05-18T01:51:11.768Z,8.83
2019-05-18T01:56:13.452Z,11.80
2019-05-18T02:01:15.214Z,9.65
2019-05-18T02:06:16.931Z,7.95
2019-05-18T02:11:18.676Z,9.38
2019-05-18T02:16:20.407Z,10.00
2019-05-18T02:21:22.149Z,10.43
2019-05-18T02:26:23.947Z,10.78
2019-05-18T02:31:25.770Z,10.80
2019-05-18T02:36:27.488Z,13.32
2019-05-18T02:41:29.188Z,9.95
2019-05-18T02:46:30.958Z,12.33
2019-05-18T02:51:32.684Z,14.00
2019-05-18T02:56:34.621Z,13.58
2019-05-18T03:01:36.336Z,11.43
2019-05-18T03:06:38.226Z,10.80
2019-05-18T03:11:39.947Z,10.70
2019-05-18T03:16:41.651Z,11.25
2019-05-18T03:21:43.984Z,12.90
2019-05-18T03:26:45.710Z,10.88
2019-05-18T03:31:47.732Z,13.22
2019-05-18T03:36:49.457Z,13.30
2019-05-18T03:41:51.198Z,13.60
2019-05-18T03:46:53.264Z,10.85
2019-05-18T03:51:55.245Z,10.70
2019-05-18T03:56:57.003Z,12.23
2019-05-18T04:01:58.671Z,13.68
2019-05-18T04:07:00.575Z,12.20
2019-05-18T04:12:02.266Z,12.85
2019-05-18T04:17:04.021Z,14.55
2019-05-18T04:22:05.775Z,13.88
2019-05-18T04:27:07.549Z,15.08
2019-05-18T04:32:09.317Z,15.08
2019-05-18T04:37:11.107Z,17.77
2019-05-18T04:42:12.849Z,17.70
2019-05-18T04:47:14.595Z,18.48
2019-05-18T04:52:16.347Z,18.25
2019-05-18T04:57:18.283Z,19.12
2019-05-18T05:02:20.001Z,15.85
2019-05-18T05:07:21.745Z,17.67
2019-05-18T05:12:23.960Z,21.20
2019-05-18T05:17:25.704Z,17.57
2019-05-18T05:22:27.414Z,17.80
2019-05-18T05:27:29.116Z,14.47
2019-05-18T05:32:30.885Z,18.42
2019-05-18T05:37:32.553Z,15.68
2019-05-18T05:42:36.796Z,18.07
2019-05-18T05:47:38.569Z,14.00
2019-05-18T05:52:40.285Z,14.15
2019-05-18T05:57:42.013Z,13.45
2019-05-18T06:02:43.740Z,15.15
2019-05-18T06:07:45.577Z,13.45
2019-05-18T06:12:47.332Z,15.08
2019-05-18T06:17:49.100Z,13.18
2019-05-18T06:22:50.870Z,12.40
2019-05-18T06:27:52.611Z,13.38
2019-05-18T06:32:54.387Z,12.18
2019-05-18T06:37:56.071Z,13.68
2019-05-18T06:42:57.807Z,14.30
2019-05-18T06:47:59.549Z,13.78
2019-05-18T06:53:01.294Z,14.30
2019-05-18T06:58:03.144Z,13.25
2019-05-18T07:03:04.859Z,14.33
2019-05-18T07:08:06.604Z,14.75
2019-05-18T07:13:08.718Z,12.45
2019-05-18T07:18:10.531Z,12.53
2019-05-18T07:23:12.278Z,12.25
2019-05-18T07:28:14.039Z,14.87
2019-05-18T07:33:15.913Z,13.30
2019-05-18T07:38:17.824Z,14.23
2019-05-18T07:43:19.982Z,12.85
2019-05-18T07:48:21.932Z,16.67
2019-05-18T07:53:23.731Z,13.75
2019-05-18T07:58:25.539Z,15.05
2019-05-18T08:03:27.332Z,10.68
2019-05-18T08:08:29.082Z,14.53
2019-05-18T08:13:31.148Z,9.70
2019-05-18T08:18:33.358Z,10.55
2019-05-18T08:23:35.123Z,8.90
2019-05-18T08:28:36.954Z,10.58
2019-05-18T08:34:41.967Z,8.63
2019-05-18T08:39:43.639Z,7.67
2019-05-18T08:44:46.923Z,9.08
2019-05-18T08:49:50.573Z,7.17
2019-05-18T08:54:52.399Z,8.30
2019-05-18T08:59:54.083Z,7.90
2019-05-18T09:04:56.159Z,7.28
2019-05-18T09:09:58.191Z,6.87
2019-05-18T09:14:59.940Z,6.03
2019-05-18T09:20:01.593Z,8.58
2019-05-18T09:25:03.525Z,6.85
2019-05-18T09:30:05.912Z,8.25
2019-05-18T09:35:07.903Z,5.83
2019-05-18T09:40:09.585Z,8.85
2019-05-18T09:45:12.863Z,6.22
2019-05-18T09:50:14.872Z,7.83
2019-05-18T09:55:16.469Z,7.12
2019-05-18T10:00:18.613Z,8.18
2019-05-18T10:05:20.523Z,6.45
2019-05-18T10:10:22.270Z,10.08
2019-05-18T10:15:23.975Z,4.37
2019-05-18T10:20:25.752Z,4.53
2019-05-18T10:25:27.784Z,5.28
2019-05-18T10:30:29.456Z,3.67
2019-05-18T10:35:31.182Z,4.70
2019-05-18T10:40:33.198Z,4.10
2019-05-18T10:45:34.892Z,4.37
2019-05-18T10:50:38.830Z,3.80
2019-05-18T10:55:40.576Z,6.40
2019-05-18T11:00:42.373Z,4.08
2019-05-18T11:05:44.037Z,4.00
2019-05-18T11:10:45.700Z,3.40
2019-05-18T11:15:47.384Z,4.20
2019-05-18T11:20:49.106Z,5.65
2019-05-18T11:25:50.958Z,4.05
2019-05-18T11:30:52.691Z,4.72
2019-05-18T11:35:54.463Z,3.67
2019-05-18T11:40:56.153Z,4.20
2019-05-18T11:45:57.882Z,4.72
2019-05-18T11:50:59.616Z,5.35
2019-05-18T11:56:01.323Z,3.35
2019-05-18T12:01:03.045Z,4.50
2019-05-18T12:06:04.725Z,4.05
2019-05-18T12:11:06.536Z,3.98
2019-05-18T12:16:08.597Z,5.20
2019-05-18T12:21:10.290Z,3.45
2019-05-18T12:26:11.992Z,4.70
2019-05-18T12:31:13.764Z,4.62
2019-05-18T12:36:15.855Z,4.12
2019-05-18T12:41:20.658Z,4.45
2019-05-18T12:46:23.263Z,5.00
2019-05-18T12:51:24.958Z,4.15
2019-05-18T12:56:26.670Z,3.37
2019-05-18T13:01:28.374Z,5.35
2019-05-18T13:06:30.060Z,4.30
2019-05-18T13:11:31.766Z,3.33
2019-05-18T13:16:33.425Z,4.62
2019-05-18T13:21:35.143Z,4.20
2019-05-18T13:26:36.845Z,2.67
2019-05-18T13:31:38.522Z,3.12
2019-05-18T13:36:41.286Z,3.05
2019-05-18T13:41:43.168Z,4.67
2019-05-18T13:46:44.891Z,3.17
2019-05-18T13:51:46.594Z,3.55
2019-05-18T13:56:49.483Z,3.00
2019-05-18T14:01:51.391Z,2.80
2019-05-18T14:06:54.888Z,3.00
2019-05-18T14:11:56.728Z,3.10
2019-05-18T14:16:58.490Z,2.58
2019-05-18T14:22:00.203Z,2.65
2019-05-18T14:27:01.929Z,2.60
2019-05-18T14:32:03.612Z,2.55
2019-05-18T14:37:05.337Z,2.70
2019-05-18T14:42:07.008Z,3.00
2019-05-18T14:47:08.704Z,3.52
2019-05-18T14:52:12.191Z,4.20
2019-05-18T14:57:13.993Z,5.08
2019-05-18T15:02:16.161Z,4.22
2019-05-18T15:07:17.935Z,3.00
2019-05-18T15:12:19.623Z,4.47
2019-05-18T15:17:21.427Z,3.35
2019-05-18T15:22:23.222Z,3.65
2019-05-18T15:27:24.882Z,4.58
2019-05-18T15:32:26.596Z,5.60
2019-05-18T15:37:28.344Z,3.12
2019-05-18T15:42:30.104Z,3.47
2019-05-18T15:47:31.828Z,5.70
2019-05-18T15:52:33.616Z,5.95
2019-05-18T15:57:35.441Z,6.58
2019-05-18T16:02:37.251Z,4.70
2019-05-18T16:07:38.890Z,5.25
2019-05-18T16:12:40.620Z,5.45
2019-05-18T16:17:42.362Z,4.87
2019-05-18T16:22:44.637Z,3.95
2019-05-18T16:27:46.482Z,4.30
2019-05-18T16:32:48.387Z,7.33
2019-05-18T16:37:50.589Z,4.62
2019-05-18T16:42:52.482Z,5.35
2019-05-18T16:47:57.455Z,4.75
2019-05-18T16:52:59.833Z,3.27
2019-05-18T16:58:01.611Z,5.05
2019-05-18T17:03:03.938Z,4.78
2019-05-18T17:08:05.706Z,6.58
2019-05-18T17:13:09.143Z,5.53
2019-05-18T17:18:10.955Z,4.35
2019-05-18T17:23:20.228Z,3.40
2019-05-18T17:28:22.023Z,4.33
2019-05-18T17:33:23.847Z,4.78
2019-05-18T17:38:28.310Z,4.60
2019-05-18T17:43:30.602Z,4.50
2019-05-18T17:48:37.041Z,4.70
2019-05-18T17:53:39.291Z,4.55
2019-05-18T17:58:41.132Z,4.47
2019-05-18T18:03:44.938Z,5.40
2019-05-18T18:08:46.759Z,5.25
2019-05-18T18:13:48.940Z,9.28
2019-05-18T18:18:50.650Z,6.80
2019-05-18T18:23:55.543Z,5.00
2019-05-18T18:28:57.223Z,5.55
2019-05-18T18:33:58.975Z,4.30
2019-05-18T18:39:01.280Z,5.22
2019-05-18T18:44:04.748Z,4.50
2019-05-18T18:49:06.467Z,8.10
2019-05-18T18:54:08.141Z,3.55
2019-05-18T18:59:09.868Z,4.70
2019-05-18T19:04:11.698Z,1.85
2019-05-18T19:09:13.433Z,3.22
2019-05-18T19:14:15.269Z,1.60
2019-05-18T19:19:17.069Z,1.87
2019-05-18T19:24:19.123Z,1.98
2019-05-18T19:29:21.320Z,2.30
2019-05-18T19:34:23.206Z,2.30
2019-05-18T19:39:25.248Z,3.90
2019-05-18T19:44:26.922Z,3.98
2019-05-18T19:49:28.728Z,2.15
2019-05-18T19:54:30.509Z,3.87
2019-05-18T19:59:32.171Z,3.98
2019-05-18T20:04:33.922Z,4.45
2019-05-18T20:09:36.427Z,3.50
2019-05-18T20:14:38.201Z,4.65
2019-05-18T20:19:40.047Z,4.30
2019-05-18T20:24:41.759Z,3.27
2019-05-18T20:29:47.572Z,4.70
2019-05-18T20:34:51.251Z,4.08
2019-05-18T20:39:52.902Z,5.30
2019-05-18T20:44:54.579Z,4.50
2019-05-18T20:49:56.307Z,4.42
2019-05-18T20:54:59.206Z,7.00
2019-05-18T21:00:01.262Z,5.92
2019-05-18T21:05:03.034Z,6.87
2019-05-18T21:10:05.042Z,4.08
2019-05-18T21:15:06.997Z,4.25
2019-05-18T21:20:08.630Z,5.45
2019-05-18T21:25:10.354Z,6.58
2019-05-18T21:30:12.094Z,4.78
2019-05-18T21:35:13.856Z,6.70
2019-05-18T21:40:15.576Z,5.92
2019-05-18T21:45:17.276Z,7.87
2019-05-18T21:50:19.323Z,4.47
2019-05-18T21:55:20.909Z,5.30
2019-05-18T22:00:23.926Z,5.42
2019-05-18T22:05:26.668Z,5.78
2019-05-18T22:10:28.492Z,5.47
2019-05-18T22:15:30.278Z,5.00
2019-05-18T22:20:35.175Z,7.12
2019-05-18T22:25:36.890Z,6.33
2019-05-18T22:30:38.588Z,5.60
2019-05-18T22:35:40.535Z,6.92
2019-05-18T22:40:42.751Z,6.35
2019-05-18T22:45:44.576Z,6.83
2019-05-18T22:50:46.263Z,6.40
2019-05-18T22:55:48.018Z,5.00
2019-05-18T23:00:49.697Z,5.55
2019-05-18T23:05:51.470Z,6.08
2019-05-18T23:10:53.154Z,5.42
2019-05-18T23:15:55.142Z,3.98
2019-05-18T23:20:56.904Z,4.65
2019-05-18T23:25:58.746Z,6.47
2019-05-18T23:31:00.454Z,7.75
2019-05-18T23:36:02.164Z,7.50
2019-05-18T23:41:03.853Z,6.60
2019-05-18T23:46:05.494Z,7.10
2019-05-18T23:51:07.197Z,8.18
2019-05-18T23:56:08.943Z,8.40
